Cades, SC (29518)

7:55 PM EST on February 28, 2015 (GMT -0500)
Williamsburg County | Change Station
CLOSE
Current Station
Airport
Location: Kingstree,
Elevation: 66 ft
Nearby Weather Stations

Elev 66 ft 33.72 °N, 79.86 °W | Updated 3 seconds ago

Mostly Cloudy
Mostly Cloudy
46 °F
Feels Like 44 °F
N
6
Wind Variable Wind from North

Today
High -- | Low -- °F
--% Chance of Precip.
Yesterday
High -- | Low -- °F
Precip. -- in
6:49 AM 6:14 PM
Waxing Gibbous, 81% visible
Pressure 30.62 in
Visibility 10.0 miles
Clouds Scattered Clouds 3000 ft
Overcast 9000 ft
Windchill 44 °F
Dew Point 36 °F
Humidity 66%
Rainfall 0.00 in
Snow Depth Not available.
UV 0 out of 12
Pollen 7.40 out of 12
Air Quality Not available.
Flu Activity Not available.
METAR KCKI 010055Z AUTO 01005KT 10SM -DZ SCT030 OVC090 08/02 A3062 RMK AO2

More Conditions Fewer Conditions

Pressure 30.62 in
Visibility 10.0 miles
Clouds Scattered Clouds 3000 ft
Overcast 9000 ft
Windchill 44 °F
Dew Point 36 °F
Humidity 66%
Rainfall 0.00 in
Snow Depth Not available.
UV 0 out of 12
Pollen 7.40 out of 12
Air Quality Not available.
Flu Activity Not available.
METAR KCKI 010055Z AUTO 01005KT 10SM -DZ SCT030 OVC090 08/02 A3062 RMK AO2

More Conditions Fewer Conditions

10-Day Weather Forecast

Almanac

Astronomy

Feb. 28, 2015 Rise Set
Actual Time
Civil Twilight
Nautical Twilight
Astronomical Twilight
Moon
Length of Visible Light
Length of Day
Tomorrow will be .
, % of the Moon is Illuminated

Today's Extremes

State Highs State Lows

Community

WunderPhotos

Upload Photos

1,801,194 photos uploaded!

WunderBlogs® & News

Nearby

Air Quality

  Air Quality AQ Index Pollutant
Not available.

Snow Depth

Station Depth Elevation

Earthquake Activity

City Distance Mag. Time & Date
Minimum magnitude displayed is 2.5.

Coastal Water Temperatures

Place Temperature

Nearby Weather Stations